createdAt,value
2019-03-23T00:03:01.031Z,34.70
2019-03-23T00:08:06.919Z,36.20
2019-03-23T00:13:12.792Z,35.60
2019-03-23T00:18:18.760Z,40.87
2019-03-23T00:23:24.532Z,39.77
2019-03-23T00:28:30.518Z,40.90
2019-03-23T00:33:36.375Z,44.30
2019-03-23T00:38:42.160Z,41.93
2019-03-23T00:43:48.015Z,39.93
2019-03-23T00:48:53.855Z,41.40
2019-03-23T00:53:59.761Z,43.10
2019-03-23T00:59:05.741Z,41.20
2019-03-23T01:04:11.711Z,41.90
2019-03-23T01:09:17.585Z,44.60
2019-03-23T01:14:23.444Z,43.30
2019-03-23T01:19:29.422Z,43.67
2019-03-23T01:24:35.488Z,43.33
2019-03-23T01:29:41.288Z,44.33
2019-03-23T01:34:47.345Z,41.10
2019-03-23T01:39:53.129Z,44.83
2019-03-23T01:44:59.093Z,43.27
2019-03-23T01:50:07.627Z,41.90
2019-03-23T01:55:13.626Z,44.60
2019-03-23T02:00:19.423Z,41.13
2019-03-23T02:05:25.528Z,43.10
2019-03-23T02:10:31.399Z,45.77
2019-03-23T02:15:38.290Z,41.97
2019-03-23T02:20:44.165Z,38.77
2019-03-23T02:25:49.930Z,43.73
2019-03-23T02:30:55.698Z,45.33
2019-03-23T02:36:01.587Z,40.10
2019-03-23T02:41:07.550Z,44.47
2019-03-23T02:46:13.319Z,42.13
2019-03-23T02:51:19.347Z,42.27
2019-03-23T02:56:25.268Z,41.53
2019-03-23T03:01:31.076Z,41.90
2019-03-23T03:06:37.007Z,43.60
2019-03-23T03:11:42.912Z,44.93
2019-03-23T03:16:48.866Z,40.40
2019-03-23T03:21:54.623Z,42.40
2019-03-23T03:27:00.502Z,45.67
2019-03-23T03:32:06.382Z,45.00
2019-03-23T03:37:14.894Z,41.00
2019-03-23T03:42:20.770Z,42.37
2019-03-23T03:47:26.551Z,44.77
2019-03-23T03:52:32.412Z,42.27
2019-03-23T03:57:38.274Z,44.43
2019-03-23T04:02:44.070Z,43.70
2019-03-23T04:07:50.128Z,41.20
2019-03-23T04:12:56.025Z,43.13
2019-03-23T04:18:01.769Z,44.33
2019-03-23T04:23:08.558Z,45.73
2019-03-23T04:28:14.333Z,43.10
2019-03-23T04:33:20.102Z,45.50
2019-03-23T04:38:25.964Z,44.27
2019-03-23T04:43:32.966Z,47.57
2019-03-23T04:48:38.949Z,46.27
2019-03-23T04:53:44.906Z,44.63
2019-03-23T04:58:50.775Z,46.03
2019-03-23T05:03:56.755Z,46.33
2019-03-23T05:09:02.627Z,46.23
2019-03-23T05:14:08.561Z,44.03
2019-03-23T05:19:14.527Z,46.30
2019-03-23T05:24:20.544Z,45.97
2019-03-23T05:29:26.415Z,45.47
2019-03-23T05:34:32.287Z,46.90
2019-03-23T05:39:38.155Z,47.73
2019-03-23T05:44:44.046Z,45.33
2019-03-23T05:49:49.896Z,48.07
2019-03-23T05:54:56.098Z,48.43
2019-03-23T06:00:01.857Z,48.40
2019-03-23T06:05:07.835Z,46.37
2019-03-23T06:10:13.693Z,48.03
2019-03-23T06:15:19.567Z,50.07
2019-03-23T06:20:25.449Z,50.17
2019-03-23T06:25:31.306Z,48.47
2019-03-23T06:30:37.220Z,48.70
2019-03-23T06:35:44.071Z,48.80
2019-03-23T06:40:49.948Z,47.03
2019-03-23T06:45:55.716Z,47.47
2019-03-23T06:51:03.306Z,49.80
2019-03-23T06:56:08.991Z,48.70
2019-03-23T07:01:14.878Z,46.37
2019-03-23T07:06:20.839Z,48.00
2019-03-23T07:11:26.718Z,43.13
2019-03-23T07:16:32.647Z,41.40
2019-03-23T07:21:38.589Z,50.80
2019-03-23T07:26:45.479Z,41.80
2019-03-23T07:31:51.438Z,44.87
2019-03-23T07:36:57.412Z,43.97
2019-03-23T07:42:03.266Z,46.73
2019-03-23T07:47:09.344Z,49.57
2019-03-23T07:52:15.314Z,45.83
2019-03-23T07:57:21.371Z,48.40
2019-03-23T08:02:27.274Z,50.47
2019-03-23T08:07:33.287Z,53.53
2019-03-23T08:12:39.227Z,51.73
2019-03-23T08:17:47.285Z,49.83
2019-03-23T08:22:54.411Z,51.57
2019-03-23T08:28:00.320Z,51.43
2019-03-23T08:33:06.670Z,43.50
2019-03-23T08:38:12.558Z,47.07
2019-03-23T08:43:18.441Z,45.37
2019-03-23T08:48:24.323Z,44.57
2019-03-23T08:53:30.189Z,43.63
2019-03-23T08:58:35.225Z,44.13
2019-03-23T09:03:51.789Z,45.97
2019-03-23T09:08:49.059Z,46.30
2019-03-23T09:13:55.058Z,43.37
2019-03-23T09:19:02.012Z,44.93
2019-03-23T09:24:08.184Z,48.00
2019-03-23T09:29:13.957Z,46.60
2019-03-23T09:34:20.102Z,49.97
2019-03-23T09:39:25.993Z,47.60
2019-03-23T09:44:32.014Z,49.93
2019-03-23T09:49:38.036Z,53.10
2019-03-23T09:54:43.987Z,50.87
2019-03-23T09:59:50.087Z,51.13
2019-03-23T10:04:56.265Z,46.97
2019-03-23T10:10:02.057Z,46.07
2019-03-23T10:15:09.227Z,41.80
2019-03-23T10:20:15.145Z,51.80
2019-03-23T10:25:21.072Z,86.47
2019-03-23T10:30:26.957Z,99.57
2019-03-23T10:35:32.960Z,89.50
2019-03-23T10:40:38.908Z,83.60
2019-03-23T10:45:44.779Z,84.33
2019-03-23T10:50:50.749Z,80.53
2019-03-23T10:55:56.523Z,86.53
2019-03-23T11:01:02.557Z,70.43
2019-03-23T11:06:08.467Z,82.57
2019-03-23T11:11:14.360Z,73.03
2019-03-23T11:16:20.341Z,60.70
2019-03-23T11:21:26.288Z,57.60
2019-03-23T11:26:32.327Z,50.10
2019-03-23T11:31:38.262Z,55.37
2019-03-23T11:36:44.303Z,53.13
2019-03-23T11:41:50.178Z,53.00
2019-03-23T11:46:56.243Z,52.53
2019-03-23T11:52:02.124Z,52.53
2019-03-23T11:57:09.116Z,52.37
2019-03-23T12:02:14.997Z,55.33
2019-03-23T12:07:21.165Z,47.60
2019-03-23T12:12:27.148Z,48.47
2019-03-23T12:17:32.906Z,44.57
2019-03-23T12:22:38.778Z,46.17
2019-03-23T12:27:44.728Z,44.13
2019-03-23T12:32:51.031Z,46.27
2019-03-23T12:37:56.910Z,42.30
2019-03-23T12:43:02.769Z,38.43
2019-03-23T12:48:08.697Z,41.80
2019-03-23T12:53:15.614Z,42.33
2019-03-23T12:58:22.848Z,41.57
2019-03-23T13:03:29.029Z,40.97
2019-03-23T13:08:35.120Z,39.00
2019-03-23T13:13:41.088Z,37.33
2019-03-23T13:18:46.977Z,36.87
2019-03-23T13:23:52.993Z,39.00
2019-03-23T13:28:59.018Z,34.93
2019-03-23T13:34:04.993Z,34.73
2019-03-23T13:39:11.012Z,34.03
2019-03-23T13:44:17.063Z,32.70
2019-03-23T13:49:23.090Z,32.90
2019-03-23T13:54:28.974Z,28.00
2019-03-23T13:59:47.131Z,39.88
2019-03-23T14:04:53.348Z,31.87
2019-03-23T14:09:59.396Z,32.93
2019-03-23T14:15:07.630Z,31.50
2019-03-23T14:20:14.113Z,29.37
2019-03-23T14:25:20.077Z,23.77
2019-03-23T14:30:25.941Z,15.27
2019-03-23T14:35:31.811Z,11.93
2019-03-23T14:40:37.686Z,11.93
2019-03-23T14:45:43.558Z,13.97
2019-03-23T14:50:49.324Z,13.20
2019-03-23T14:55:55.307Z,14.13
2019-03-23T15:01:01.067Z,13.40
2019-03-23T15:06:07.356Z,12.90
2019-03-23T15:11:13.250Z,10.87
2019-03-23T15:16:19.199Z,10.23
2019-03-23T15:21:25.072Z,11.43
2019-03-23T15:26:31.037Z,9.07
2019-03-23T15:31:37.212Z,10.87
2019-03-23T15:36:43.188Z,11.93
2019-03-23T15:41:49.102Z,14.83
2019-03-23T15:46:55.134Z,15.83
2019-03-23T15:52:01.002Z,15.40
2019-03-23T15:57:06.922Z,15.37
2019-03-23T16:02:12.857Z,14.60
2019-03-23T16:07:18.726Z,14.80
2019-03-23T16:12:34.269Z,13.93
2019-03-23T16:17:32.139Z,12.00
2019-03-23T16:22:38.151Z,11.70
2019-03-23T16:27:44.985Z,11.67
2019-03-23T16:32:50.942Z,12.83
2019-03-23T16:37:56.905Z,12.70
2019-03-23T16:43:02.729Z,12.73
2019-03-23T16:48:08.563Z,12.57
2019-03-23T16:53:14.487Z,12.10
2019-03-23T16:58:21.334Z,12.43
2019-03-23T17:03:27.240Z,12.50
2019-03-23T17:08:33.173Z,12.93
2019-03-23T17:13:40.006Z,13.17
2019-03-23T17:18:45.884Z,13.77
2019-03-23T17:23:51.753Z,15.30
2019-03-23T17:28:57.567Z,15.33
2019-03-23T17:34:03.448Z,16.40
2019-03-23T17:39:09.419Z,16.73
2019-03-23T17:44:15.346Z,18.00
2019-03-23T17:49:21.156Z,16.10
2019-03-23T17:54:27.195Z,15.57
2019-03-23T17:59:33.005Z,16.77
2019-03-23T18:04:39.178Z,15.37
2019-03-23T18:09:45.053Z,17.33
2019-03-23T18:14:50.928Z,15.33
2019-03-23T18:19:56.904Z,19.20
2019-03-23T18:25:04.929Z,20.33
2019-03-23T18:30:25.960Z,20.03
2019-03-23T18:35:31.829Z,20.27
2019-03-23T18:40:38.051Z,20.87
2019-03-23T18:45:43.930Z,21.60
2019-03-23T18:50:50.192Z,21.00
2019-03-23T18:55:56.250Z,16.20
2019-03-23T19:01:02.925Z,14.30
2019-03-23T19:06:08.838Z,12.50
2019-03-23T19:11:15.111Z,15.20
2019-03-23T19:16:21.158Z,15.87
2019-03-23T19:21:27.115Z,14.70
2019-03-23T19:26:33.020Z,14.23
2019-03-23T19:31:38.995Z,13.43
2019-03-23T19:36:44.900Z,13.37
2019-03-23T19:41:50.929Z,17.27
2019-03-23T19:46:56.822Z,16.03
2019-03-23T19:52:02.755Z,15.43
2019-03-23T19:57:08.630Z,12.70
2019-03-23T20:02:14.502Z,12.13
2019-03-23T20:07:20.511Z,12.57
2019-03-23T20:12:26.351Z,11.40
2019-03-23T20:17:32.373Z,10.77
2019-03-23T20:22:39.266Z,10.70
2019-03-23T20:27:45.128Z,11.10
2019-03-23T20:32:50.958Z,8.80
2019-03-23T20:37:57.049Z,10.33
2019-03-23T20:43:03.039Z,10.33
2019-03-23T20:48:08.979Z,9.80
2019-03-23T20:53:16.278Z,10.63
2019-03-23T20:58:22.259Z,8.73
2019-03-23T21:03:28.125Z,9.40
2019-03-23T21:08:33.988Z,8.33
2019-03-23T21:13:39.865Z,11.00
2019-03-23T21:18:45.738Z,9.17
2019-03-23T21:23:52.163Z,9.53
2019-03-23T21:28:58.196Z,10.50
2019-03-23T21:34:04.090Z,10.80
2019-03-23T21:39:10.047Z,10.80
2019-03-23T21:44:15.930Z,11.63
2019-03-23T21:49:21.802Z,11.23
2019-03-23T21:54:27.672Z,9.70
2019-03-23T21:59:33.530Z,12.27
2019-03-23T22:04:39.300Z,10.83
2019-03-23T22:09:45.169Z,10.57
2019-03-23T22:14:52.162Z,10.67
2019-03-23T22:19:58.150Z,9.37
2019-03-23T22:25:04.326Z,10.37
2019-03-23T22:30:14.366Z,11.30
2019-03-23T22:35:20.176Z,10.13
2019-03-23T22:40:28.140Z,10.13
2019-03-23T22:45:35.702Z,10.20
2019-03-23T22:50:41.204Z,10.63
2019-03-23T22:55:47.029Z,9.37
2019-03-23T23:00:55.455Z,9.80
2019-03-23T23:06:01.628Z,9.23
2019-03-23T23:11:07.815Z,11.03
2019-03-23T23:16:13.745Z,8.43
2019-03-23T23:21:19.650Z,9.30
2019-03-23T23:26:25.421Z,7.97
2019-03-23T23:31:32.316Z,8.40
2019-03-23T23:36:38.089Z,9.20
2019-03-23T23:41:43.957Z,7.80
2019-03-23T23:46:50.966Z,8.77
2019-03-23T23:51:56.923Z,9.00
2019-03-23T23:57:02.803Z,7.83
